MSC Shirley — D5IY3 — position and weather

sailwx.info

Track history (hours):
 
Tides and Currents Weather Stations Pressure Air Temp Water Temp Dewpoint Dewpoint Depression Visibility Wind Speed Wind Dir Waves Ship Positions

MSC Shirley

Last reported at 2017-Dec-14 16:15 UTC. Time now 2017-Dec-16 01:42 UTC.
Position N 35°59' W 005°13'.

Length 188 m; draft 8.2 m.

Type: Ship (hazmat cat C). MMSI: 636017022.

Date/timePositionNaut miles runAvg speedWind from/ knotsBaromVisibWave heightAir tempDewpointWater temp
2017-Dec-14 16:15N 35°59' W 005°13'519.2
2017-Dec-14 16:00N 35°59' W 005°19'24915.9
2017-Dec-14 00:20N 37°57' W 009°53'618.2
2017-Dec-14 00:00N 38°03' W 009°55'1218.0
2017-Dec-13 23:20N 38°14' W 009°58'617.9
2017-Dec-13 23:00N 38°20' W 009°60'917.9
2017-Dec-13 22:30N 38°29' W 010°03'917.9
2017-Dec-13 22:00N 38°38' W 010°05'918.0
2017-Dec-13 21:30N 38°47' W 010°06'917.9
2017-Dec-13 21:00N 38°56' W 010°06'917.7
2017-Dec-13 20:30N 39°04' W 010°07'917.7
2017-Dec-13 20:00N 39°13' W 010°07'918.1
2017-Dec-13 19:30N 39°22' W 010°07'67915.6
2017-Dec-11 23:53N 49°42' W 003°37'614.6
2017-Dec-11 23:30N 49°45' W 003°29'714.9
2017-Dec-11 23:00N 49°48' W 003°19'815.4
2017-Dec-11 22:30N 49°53' W 003°10'815.7
2017-Dec-11 22:00N 49°58' W 003°01'816.2
2017-Dec-11 21:30N 50°01' W 002°49'816.8
2017-Dec-11 21:00N 50°03' W 002°36'6516.9
2017-Dec-11 17:11N 50°23' W 001°00'315.4
2017-Dec-11 17:00N 50°24' W 000°56'611.6
2017-Dec-11 16:30N 50°27' W 000°48'4 7.3
2017-Dec-11 16:00N 50°26' W 000°54'4 7.6
2017-Dec-11 15:30N 50°25' W 000°60'4 7.6
2017-Dec-11 15:00N 50°24' W 001°05'5 7.5
2017-Dec-11 14:21N 50°22' W 001°13'4 7.2
2017-Dec-11 13:44N 50°21' W 001°19'2 6.6
2017-Dec-11 13:30N 50°21' W 001°22'3 6.4
2017-Dec-11 13:00N 50°20' W 001°26'11 7.7
2017-Dec-11 11:31N 50°17' W 001°44'0 6.3
2017-Dec-11 11:28N 50°17' W 001°44'3 5.4
2017-Dec-11 11:01N 50°16' W 001°47'2 4.9
2017-Dec-11 10:30N 50°14' W 001°51'2 4.7
2017-Dec-11 10:00N 50°14' W 001°54'8 4.2
2017-Dec-11 08:01N 50°10' W 002°06'0 5.5
2017-Dec-11 08:00N 50°10' W 002°06'4111.9
2017-Dec-11 04:36N 50°21' W 001°05'1 9.6
2017-Dec-11 04:28N 50°21' W 001°03'4 9.6
2017-Dec-11 04:00N 50°22' W 000°56'4 8.9
2017-Dec-11 03:31N 50°24' W 000°50'7 8.4
2017-Dec-11 02:42N 50°26' W 000°39'11 8.4
2017-Dec-11 01:27N 50°28' W 000°23'4 8.8
2017-Dec-11 01:01N 50°29' W 000°17'5 9.1
2017-Dec-11 00:30N 50°30' W 000°10'5 9.6
2017-Dec-11 00:00N 50°31' W 000°03'510.0
2017-Dec-10 23:30N 50°32' E 000°05'510.4
2017-Dec-10 23:01N 50°33' E 000°13'510.6
2017-Dec-10 22:31N 50°34' E 000°21'510.9
2017-Dec-10 22:01N 50°36' E 000°29'510.9
2017-Dec-10 21:31N 50°39' E 000°37'510.8
2017-Dec-10 21:01N 50°41' E 000°44'510.5
2017-Dec-10 20:31N 50°43' E 000°52'510.0
2017-Dec-10 20:01N 50°46' E 000°59'5 9.4
2017-Dec-10 19:31N 50°48' E 001°05'5 9.0
2017-Dec-10 18:58N 50°51' E 001°11'4 8.1
2017-Dec-10 18:27N 50°54' E 001°17'3 7.2
2017-Dec-10 18:00N 50°56' E 001°20'3 6.4
2017-Dec-10 17:30N 50°58' E 001°23'3 5.6
2017-Dec-10 16:59N 51°01' E 001°26'2 5.0
2017-Dec-10 16:30N 51°02' E 001°29'2 4.7
2017-Dec-10 16:00N 51°04' E 001°32'2 4.4
2017-Dec-10 15:31N 51°05' E 001°35'2 3.4
2017-Dec-10 15:01N 51°06' E 001°37'2 3.5
2017-Dec-10 14:31N 51°08' E 001°38'2 4.4
2017-Dec-10 14:00N 51°09' E 001°41'2 4.8
2017-Dec-10 13:31N 51°11' E 001°43'2 3.3
2017-Dec-10 13:01N 51°13' E 001°45'3 6.8
2017-Dec-10 12:31N 51°15' E 001°49'4 7.8
2017-Dec-10 12:01N 51°18' E 001°52'4 7.9
2017-Dec-10 11:31N 51°21' E 001°56'4 7.3
2017-Dec-10 11:00N 51°24' E 001°60'4 7.7
2017-Dec-10 10:31N 51°24' E 002°06'510.5
2017-Dec-10 10:01N 51°21' E 002°13'4 8.8
2017-Dec-10 09:31N 51°21' E 002°20'5 8.9
2017-Dec-10 09:00N 51°22' E 002°27'5 9.8
2017-Dec-10 08:28N 51°23' E 002°35'5 9.6
2017-Dec-10 07:59N 51°23' E 002°43'5 9.9
2017-Dec-10 07:29N 51°22' E 002°51'612.1
2017-Dec-10 07:01N 51°24' E 002°60'611.7
2017-Dec-10 06:31N 51°24' E 003°09'612.0
2017-Dec-10 06:01N 51°25' E 003°18'611.6
2017-Dec-10 05:31N 51°25' E 003°28'510.8
2017-Dec-10 05:01N 51°26' E 003°36'4 7.6
2017-Dec-10 04:30N 51°25' E 003°42'611.4
2017-Dec-10 04:01N 51°21' E 003°48'510.9
2017-Dec-10 03:30N 51°23' E 003°56'4 8.4
2017-Dec-10 03:01N 51°26' E 004°01'5 9.5
2017-Dec-10 02:31N 51°22' E 004°06'4 8.6
2017-Dec-10 02:01N 51°22' E 004°13'5 8.9
2017-Dec-10 01:30N 51°18' E 004°16'0 0.3
2017-Dec-10 01:00N 51°18' E 004°16'0 0.0
2017-Dec-10 00:30N 51°18' E 004°16'0 0.0
2017-Dec-10 00:00N 51°18' E 004°16'0 0.0
2017-Dec-09 23:30N 51°18' E 004°16'0 0.0
2017-Dec-09 23:00N 51°18' E 004°16'0 0.0
2017-Dec-09 22:30N 51°18' E 004°16'0 0.0
2017-Dec-09 22:00N 51°18' E 004°16'0 0.0
2017-Dec-09 21:30N 51°18' E 004°16'0 0.0
2017-Dec-09 21:00N 51°18' E 004°16'0 0.1
2017-Dec-09 20:30N 51°18' E 004°16'0 0.0
2017-Dec-09 20:00N 51°18' E 004°16'0 0.0
2017-Dec-09 19:30N 51°18' E 004°16'0 0.0
2017-Dec-09 19:00N 51°18' E 004°16'0 0.0
2017-Dec-09 18:30N 51°18' E 004°16'0 0.0
2017-Dec-09 18:00N 51°18' E 004°16'0 0.0
2017-Dec-09 17:30N 51°18' E 004°16'0 0.0
2017-Dec-09 17:00N 51°18' E 004°16'0 0.0
2017-Dec-09 16:30N 51°18' E 004°16'0 0.0
2017-Dec-09 16:00N 51°18' E 004°16'0 0.0
2017-Dec-09 15:30N 51°18' E 004°16'0 0.0
2017-Dec-09 15:00N 51°18' E 004°16'0 0.0
2017-Dec-09 14:30N 51°18' E 004°16'0 0.0
2017-Dec-09 14:00N 51°18' E 004°16'0 0.1
2017-Dec-09 13:30N 51°18' E 004°16'3 6.9
2017-Dec-09 13:00N 51°21' E 004°14'3 6.5
2017-Dec-09 12:30N 51°23' E 004°09'4 8.9
2017-Dec-09 12:00N 51°23' E 004°02'3 6.2
2017-Dec-09 11:30N 51°25' E 003°58'5 9.7
2017-Dec-09 11:00N 51°21' E 003°53'611.0
2017-Dec-09 10:30N 51°22' E 003°44'510.0
2017-Dec-09 10:00N 51°26' E 003°39'4 8.2
2017-Dec-09 09:30N 51°25' E 003°33'611.2
2017-Dec-09 09:01N 51°24' E 003°24'714.8
2017-Dec-09 08:31N 51°24' E 003°12'815.1
2017-Dec-09 08:01N 51°24' E 003°00'816.5
2017-Dec-09 07:31N 51°22' E 002°47'810.2
2017-Dec-09 06:46N 51°22' E 002°35'2 6.0
2017-Dec-09 06:29N 51°23' E 002°33'5 5.1
2017-Dec-09 05:32N 51°23' E 002°40'3 7.5
2017-Dec-09 05:11N 51°22' E 002°36'2 6.6
2017-Dec-09 04:51N 51°22' E 002°33'3 8.3
2017-Dec-09 04:29N 51°21' E 002°28'4 8.3
2017-Dec-09 04:00N 51°19' E 002°23'713.4
2017-Dec-09 03:31N 51°15' E 002°14'714.2
2017-Dec-09 03:01N 51°12' E 002°04'713.9
2017-Dec-09 02:30N 51°09' E 001°54'713.3
2017-Dec-09 02:00N 51°06' E 001°44'713.2
2017-Dec-09 01:31N 51°01' E 001°37'714.8
2017-Dec-09 01:00N 50°55' E 001°30'813.4
2017-Dec-09 00:24N 50°48' E 001°26'711.9
2017-Dec-08 23:51N 50°41' E 001°23'511.7
2017-Dec-08 23:27N 50°38' E 001°17'3512.7
2017-Dec-08 20:43N 50°24' E 000°28'415.1
2017-Dec-08 20:28N 50°23' E 000°22'1214.9
2017-Dec-08 19:40N 50°19' E 000°04'314.9
2017-Dec-08 19:30N 50°18' E 000°00'914.1
2017-Dec-08 18:51N 50°13' W 000°11'513.1
2017-Dec-08 18:27N 50°08' W 000°16'511.1
2017-Dec-08 18:00N 50°04' W 000°20'611.2
2017-Dec-08 17:30N 49°59' W 000°23'611.3
2017-Dec-08 17:00N 49°54' W 000°26'612.2
2017-Dec-08 16:30N 49°48' W 000°24'612.4
2017-Dec-08 16:00N 49°42' W 000°22'612.3
2017-Dec-08 15:30N 49°36' W 000°19'612.1
2017-Dec-08 15:00N 49°32' W 000°11'612.9
2017-Dec-08 14:30N 49°30' W 000°02'612.7
2017-Dec-08 14:00N 49°28' E 000°07'1 2.1
2017-Dec-08 13:28N 49°28' E 000°09'0 0.0
2017-Dec-08 12:58N 49°28' E 000°09'0 0.0
2017-Dec-08 12:30N 49°28' E 000°09'0 0.0
2017-Dec-08 12:00N 49°28' E 000°09'0 0.0
2017-Dec-08 11:31N 49°28' E 000°09'0 0.0
2017-Dec-08 11:00N 49°28' E 000°09'0 0.0
2017-Dec-08 10:30N 49°28' E 000°09'0 0.0
2017-Dec-08 10:00N 49°28' E 000°09'0 0.0
2017-Dec-08 09:30N 49°28' E 000°09'0 0.0
2017-Dec-08 09:00N 49°28' E 000°09'0 0.0
2017-Dec-08 08:30N 49°28' E 000°09'0 0.0
2017-Dec-08 08:01N 49°28' E 000°09'0 0.0
2017-Dec-08 07:30N 49°28' E 000°09'0 0.0
2017-Dec-08 07:00N 49°28' E 000°09'0 0.0
2017-Dec-08 06:30N 49°28' E 000°09'0 0.0
2017-Dec-08 06:01N 49°28' E 000°09'0 0.0
2017-Dec-08 05:30N 49°28' E 000°09'0 0.0
2017-Dec-08 05:00N 49°28' E 000°09'0 0.0
2017-Dec-08 04:30N 49°28' E 000°09'0 0.0
2017-Dec-08 04:01N 49°28' E 000°09'0 0.0
2017-Dec-08 03:30N 49°28' E 000°09'0 0.0
2017-Dec-08 03:00N 49°28' E 000°09'0 0.0
2017-Dec-08 02:30N 49°28' E 000°09'0 0.0
2017-Dec-08 02:00N 49°28' E 000°09'0 0.0
2017-Dec-08 01:30N 49°28' E 000°09'0 0.0
2017-Dec-08 01:00N 49°28' E 000°09'0 0.0
2017-Dec-08 00:31N 49°28' E 000°09'0 0.0
2017-Dec-08 00:00N 49°28' E 000°09'0 0.0
2017-Dec-07 23:30N 49°28' E 000°09'0 0.0
2017-Dec-07 23:00N 49°28' E 000°09'0 0.0
2017-Dec-07 22:31N 49°28' E 000°09'0 0.0
2017-Dec-07 22:00N 49°28' E 000°09'0 0.0
2017-Dec-07 21:30N 49°28' E 000°09'0 0.8
2017-Dec-07 21:00N 49°27' E 000°09'1 1.5
2017-Dec-07 20:30N 49°28' E 000°08'510.1
2017-Dec-07 20:00N 49°30' E 000°01'713.4
2017-Dec-07 19:30N 49°32' W 000°08'612.9
2017-Dec-07 19:00N 49°33' W 000°18'612.4
2017-Dec-07 18:30N 49°35' W 000°27'510.7
2017-Dec-07 18:01N 49°36' W 000°35'1 1.8
2017-Dec-07 17:30N 49°37' W 000°35'0 1.0
2017-Dec-07 17:00N 49°37' W 000°35'0 0.9
2017-Dec-07 16:30N 49°38' W 000°35'0 0.7
2017-Dec-07 16:00N 49°38' W 000°34'1 1.9
2017-Dec-07 15:30N 49°39' W 000°33'0 0.7
2017-Dec-07 15:00N 49°38' W 000°33'0 0.7
2017-Dec-07 14:30N 49°38' W 000°34'1 1.3
2017-Dec-07 14:00N 49°38' W 000°34'1 1.8
2017-Dec-07 13:30N 49°38' W 000°36'1 2.0
2017-Dec-07 13:00N 49°37' W 000°37'1 2.2
2017-Dec-07 12:30N 49°37' W 000°38'1 2.4
2017-Dec-07 11:57N 49°36' W 000°40'1 2.7
2017-Dec-07 11:30N 49°35' W 000°42'1 2.9
2017-Dec-07 11:00N 49°35' W 000°44'1 2.5
2017-Dec-07 10:30N 49°35' W 000°45'510.1
2017-Dec-07 10:00N 49°40' W 000°48'714.9
2017-Dec-07 09:30N 49°45' W 000°55'816.3
2017-Dec-07 09:00N 49°49' W 001°07'1418.7
2017-Dec-07 08:14N 49°54' W 001°28'5114.2
2017-Dec-07 04:37N 49°49' W 002°47'214.7
2017-Dec-07 04:31N 49°48' W 002°49'1014.6
2017-Dec-07 03:50N 49°44' W 003°03'514.7
2017-Dec-07 03:30N 49°41' W 003°09'714.3
2017-Dec-07 03:00N 49°38' W 003°19'4415.0
2017-Dec-07 00:03N 49°15' W 004°18'715.2
2017-Dec-06 23:35N 49°12' W 004°27'215.5
2017-Dec-06 23:28N 49°11' W 004°29'815.4
2017-Dec-06 22:55N 49°06' W 004°40'715.6
2017-Dec-06 22:30N 49°03' W 004°49'815.9
2017-Dec-06 22:00N 48°58' W 004°59'815.9
2017-Dec-06 21:30N 48°54' W 005°09'816.3
2017-Dec-06 21:00N 48°50' W 005°20'  
Track history (hours):
 
Tides and Currents Weather Stations Pressure Air Temp Water Temp Dewpoint Dewpoint Depression Visibility Wind Speed Wind Dir Waves Ship Positions

MSC Shirley

Last reported at 2017-Dec-14 16:15 UTC. Time now 2017-Dec-16 01:42 UTC.
Position N 35°59' W 005°13'.

Length 188 m; draft 8.2 m.

Type: Ship (hazmat cat C). MMSI: 636017022.

Date/timePositionNaut miles runAvg speedWind from/ knotsBaromVisibWave heightAir tempDewpointWater temp
2017-Dec-14 16:15N 35°59' W 005°13'519.2
2017-Dec-14 16:00N 35°59' W 005°19'24915.9
2017-Dec-14 00:20N 37°57' W 009°53'618.2
2017-Dec-14 00:00N 38°03' W 009°55'1218.0
2017-Dec-13 23:20N 38°14' W 009°58'617.9
2017-Dec-13 23:00N 38°20' W 009°60'917.9
2017-Dec-13 22:30N 38°29' W 010°03'917.9
2017-Dec-13 22:00N 38°38' W 010°05'918.0
2017-Dec-13 21:30N 38°47' W 010°06'917.9
2017-Dec-13 21:00N 38°56' W 010°06'917.7
2017-Dec-13 20:30N 39°04' W 010°07'917.7
2017-Dec-13 20:00N 39°13' W 010°07'918.1
2017-Dec-13 19:30N 39°22' W 010°07'67915.6
2017-Dec-11 23:53N 49°42' W 003°37'614.6
2017-Dec-11 23:30N 49°45' W 003°29'714.9
2017-Dec-11 23:00N 49°48' W 003°19'815.4
2017-Dec-11 22:30N 49°53' W 003°10'815.7
2017-Dec-11 22:00N 49°58' W 003°01'816.2
2017-Dec-11 21:30N 50°01' W 002°49'816.8
2017-Dec-11 21:00N 50°03' W 002°36'6516.9
2017-Dec-11 17:11N 50°23' W 001°00'315.4
2017-Dec-11 17:00N 50°24' W 000°56'611.6
2017-Dec-11 16:30N 50°27' W 000°48'4 7.3
2017-Dec-11 16:00N 50°26' W 000°54'4 7.6
2017-Dec-11 15:30N 50°25' W 000°60'4 7.6
2017-Dec-11 15:00N 50°24' W 001°05'5 7.5
2017-Dec-11 14:21N 50°22' W 001°13'4 7.2
2017-Dec-11 13:44N 50°21' W 001°19'2 6.6
2017-Dec-11 13:30N 50°21' W 001°22'3 6.4
2017-Dec-11 13:00N 50°20' W 001°26'11 7.7
2017-Dec-11 11:31N 50°17' W 001°44'0 6.3
2017-Dec-11 11:28N 50°17' W 001°44'3 5.4
2017-Dec-11 11:01N 50°16' W 001°47'2 4.9
2017-Dec-11 10:30N 50°14' W 001°51'2 4.7
2017-Dec-11 10:00N 50°14' W 001°54'8 4.2
2017-Dec-11 08:01N 50°10' W 002°06'0 5.5
2017-Dec-11 08:00N 50°10' W 002°06'4111.9
2017-Dec-11 04:36N 50°21' W 001°05'1 9.6
2017-Dec-11 04:28N 50°21' W 001°03'4 9.6
2017-Dec-11 04:00N 50°22' W 000°56'4 8.9
2017-Dec-11 03:31N 50°24' W 000°50'7 8.4
2017-Dec-11 02:42N 50°26' W 000°39'11 8.4
2017-Dec-11 01:27N 50°28' W 000°23'4 8.8
2017-Dec-11 01:01N 50°29' W 000°17'5 9.1
2017-Dec-11 00:30N 50°30' W 000°10'5 9.6
2017-Dec-11 00:00N 50°31' W 000°03'510.0
2017-Dec-10 23:30N 50°32' E 000°05'510.4
2017-Dec-10 23:01N 50°33' E 000°13'510.6
2017-Dec-10 22:31N 50°34' E 000°21'510.9
2017-Dec-10 22:01N 50°36' E 000°29'510.9
2017-Dec-10 21:31N 50°39' E 000°37'510.8
2017-Dec-10 21:01N 50°41' E 000°44'510.5
2017-Dec-10 20:31N 50°43' E 000°52'510.0
2017-Dec-10 20:01N 50°46' E 000°59'5 9.4
2017-Dec-10 19:31N 50°48' E 001°05'5 9.0
2017-Dec-10 18:58N 50°51' E 001°11'4 8.1
2017-Dec-10 18:27N 50°54' E 001°17'3 7.2
2017-Dec-10 18:00N 50°56' E 001°20'3 6.4
2017-Dec-10 17:30N 50°58' E 001°23'3 5.6
2017-Dec-10 16:59N 51°01' E 001°26'2 5.0
2017-Dec-10 16:30N 51°02' E 001°29'2 4.7
2017-Dec-10 16:00N 51°04' E 001°32'2 4.4
2017-Dec-10 15:31N 51°05' E 001°35'2 3.4
2017-Dec-10 15:01N 51°06' E 001°37'2 3.5
2017-Dec-10 14:31N 51°08' E 001°38'2 4.4
2017-Dec-10 14:00N 51°09' E 001°41'2 4.8
2017-Dec-10 13:31N 51°11' E 001°43'2 3.3
2017-Dec-10 13:01N 51°13' E 001°45'3 6.8
2017-Dec-10 12:31N 51°15' E 001°49'4 7.8
2017-Dec-10 12:01N 51°18' E 001°52'4 7.9
2017-Dec-10 11:31N 51°21' E 001°56'4 7.3
2017-Dec-10 11:00N 51°24' E 001°60'4 7.7
2017-Dec-10 10:31N 51°24' E 002°06'510.5
2017-Dec-10 10:01N 51°21' E 002°13'4 8.8
2017-Dec-10 09:31N 51°21' E 002°20'5 8.9
2017-Dec-10 09:00N 51°22' E 002°27'5 9.8
2017-Dec-10 08:28N 51°23' E 002°35'5 9.6
2017-Dec-10 07:59N 51°23' E 002°43'5 9.9
2017-Dec-10 07:29N 51°22' E 002°51'612.1
2017-Dec-10 07:01N 51°24' E 002°60'611.7
2017-Dec-10 06:31N 51°24' E 003°09'612.0
2017-Dec-10 06:01N 51°25' E 003°18'611.6
2017-Dec-10 05:31N 51°25' E 003°28'510.8
2017-Dec-10 05:01N 51°26' E 003°36'4 7.6
2017-Dec-10 04:30N 51°25' E 003°42'611.4
2017-Dec-10 04:01N 51°21' E 003°48'510.9
2017-Dec-10 03:30N 51°23' E 003°56'4 8.4
2017-Dec-10 03:01N 51°26' E 004°01'5 9.5
2017-Dec-10 02:31N 51°22' E 004°06'4 8.6
2017-Dec-10 02:01N 51°22' E 004°13'5 8.9
2017-Dec-10 01:30N 51°18' E 004°16'0 0.3
2017-Dec-10 01:00N 51°18' E 004°16'0 0.0
2017-Dec-10 00:30N 51°18' E 004°16'0 0.0
2017-Dec-10 00:00N 51°18' E 004°16'0 0.0
2017-Dec-09 23:30N 51°18' E 004°16'0 0.0
2017-Dec-09 23:00N 51°18' E 004°16'0 0.0
2017-Dec-09 22:30N 51°18' E 004°16'0 0.0
2017-Dec-09 22:00N 51°18' E 004°16'0 0.0
2017-Dec-09 21:30N 51°18' E 004°16'0 0.0
2017-Dec-09 21:00N 51°18' E 004°16'0 0.1
2017-Dec-09 20:30N 51°18' E 004°16'0 0.0
2017-Dec-09 20:00N 51°18' E 004°16'0 0.0
2017-Dec-09 19:30N 51°18' E 004°16'0 0.0
2017-Dec-09 19:00N 51°18' E 004°16'0 0.0
2017-Dec-09 18:30N 51°18' E 004°16'0 0.0
2017-Dec-09 18:00N 51°18' E 004°16'0 0.0
2017-Dec-09 17:30N 51°18' E 004°16'0 0.0
2017-Dec-09 17:00N 51°18' E 004°16'0 0.0
2017-Dec-09 16:30N 51°18' E 004°16'0 0.0
2017-Dec-09 16:00N 51°18' E 004°16'0 0.0
2017-Dec-09 15:30N 51°18' E 004°16'0 0.0
2017-Dec-09 15:00N 51°18' E 004°16'0 0.0
2017-Dec-09 14:30N 51°18' E 004°16'0 0.0
2017-Dec-09 14:00N 51°18' E 004°16'0 0.1
2017-Dec-09 13:30N 51°18' E 004°16'3 6.9
2017-Dec-09 13:00N 51°21' E 004°14'3 6.5
2017-Dec-09 12:30N 51°23' E 004°09'4 8.9
2017-Dec-09 12:00N 51°23' E 004°02'3 6.2
2017-Dec-09 11:30N 51°25' E 003°58'5 9.7
2017-Dec-09 11:00N 51°21' E 003°53'611.0
2017-Dec-09 10:30N 51°22' E 003°44'510.0
2017-Dec-09 10:00N 51°26' E 003°39'4 8.2
2017-Dec-09 09:30N 51°25' E 003°33'611.2
2017-Dec-09 09:01N 51°24' E 003°24'714.8
2017-Dec-09 08:31N 51°24' E 003°12'815.1
2017-Dec-09 08:01N 51°24' E 003°00'816.5
2017-Dec-09 07:31N 51°22' E 002°47'810.2
2017-Dec-09 06:46N 51°22' E 002°35'2 6.0
2017-Dec-09 06:29N 51°23' E 002°33'5 5.1
2017-Dec-09 05:32N 51°23' E 002°40'3 7.5
2017-Dec-09 05:11N 51°22' E 002°36'2 6.6
2017-Dec-09 04:51N 51°22' E 002°33'3 8.3
2017-Dec-09 04:29N 51°21' E 002°28'4 8.3
2017-Dec-09 04:00N 51°19' E 002°23'713.4
2017-Dec-09 03:31N 51°15' E 002°14'714.2
2017-Dec-09 03:01N 51°12' E 002°04'713.9
2017-Dec-09 02:30N 51°09' E 001°54'713.3
2017-Dec-09 02:00N 51°06' E 001°44'713.2
2017-Dec-09 01:31N 51°01' E 001°37'714.8
2017-Dec-09 01:00N 50°55' E 001°30'813.4
2017-Dec-09 00:24N 50°48' E 001°26'711.9
2017-Dec-08 23:51N 50°41' E 001°23'511.7
2017-Dec-08 23:27N 50°38' E 001°17'3512.7
2017-Dec-08 20:43N 50°24' E 000°28'415.1
2017-Dec-08 20:28N 50°23' E 000°22'1214.9
2017-Dec-08 19:40N 50°19' E 000°04'314.9
2017-Dec-08 19:30N 50°18' E 000°00'914.1
2017-Dec-08 18:51N 50°13' W 000°11'513.1
2017-Dec-08 18:27N 50°08' W 000°16'511.1
2017-Dec-08 18:00N 50°04' W 000°20'611.2
2017-Dec-08 17:30N 49°59' W 000°23'611.3
2017-Dec-08 17:00N 49°54' W 000°26'612.2
2017-Dec-08 16:30N 49°48' W 000°24'612.4
2017-Dec-08 16:00N 49°42' W 000°22'612.3
2017-Dec-08 15:30N 49°36' W 000°19'612.1
2017-Dec-08 15:00N 49°32' W 000°11'612.9
2017-Dec-08 14:30N 49°30' W 000°02'612.7
2017-Dec-08 14:00N 49°28' E 000°07'1 2.1
2017-Dec-08 13:28N 49°28' E 000°09'0 0.0
2017-Dec-08 12:58N 49°28' E 000°09'0 0.0
2017-Dec-08 12:30N 49°28' E 000°09'0 0.0
2017-Dec-08 12:00N 49°28' E 000°09'0 0.0
2017-Dec-08 11:31N 49°28' E 000°09'0 0.0
2017-Dec-08 11:00N 49°28' E 000°09'0 0.0
2017-Dec-08 10:30N 49°28' E 000°09'0 0.0
2017-Dec-08 10:00N 49°28' E 000°09'0 0.0
2017-Dec-08 09:30N 49°28' E 000°09'0 0.0
2017-Dec-08 09:00N 49°28' E 000°09'0 0.0
2017-Dec-08 08:30N 49°28' E 000°09'0 0.0
2017-Dec-08 08:01N 49°28' E 000°09'0 0.0
2017-Dec-08 07:30N 49°28' E 000°09'0 0.0
2017-Dec-08 07:00N 49°28' E 000°09'0 0.0
2017-Dec-08 06:30N 49°28' E 000°09'0 0.0
2017-Dec-08 06:01N 49°28' E 000°09'0 0.0
2017-Dec-08 05:30N 49°28' E 000°09'0 0.0
2017-Dec-08 05:00N 49°28' E 000°09'0 0.0
2017-Dec-08 04:30N 49°28' E 000°09'0 0.0
2017-Dec-08 04:01N 49°28' E 000°09'0 0.0
2017-Dec-08 03:30N 49°28' E 000°09'0 0.0
2017-Dec-08 03:00N 49°28' E 000°09'0 0.0
2017-Dec-08 02:30N 49°28' E 000°09'0 0.0
2017-Dec-08 02:00N 49°28' E 000°09'0 0.0
2017-Dec-08 01:30N 49°28' E 000°09'0 0.0
2017-Dec-08 01:00N 49°28' E 000°09'0 0.0
2017-Dec-08 00:31N 49°28' E 000°09'0 0.0
2017-Dec-08 00:00N 49°28' E 000°09'0 0.0
2017-Dec-07 23:30N 49°28' E 000°09'0 0.0
2017-Dec-07 23:00N 49°28' E 000°09'0 0.0
2017-Dec-07 22:31N 49°28' E 000°09'0 0.0
2017-Dec-07 22:00N 49°28' E 000°09'0 0.0
2017-Dec-07 21:30N 49°28' E 000°09'0 0.8
2017-Dec-07 21:00N 49°27' E 000°09'1 1.5
2017-Dec-07 20:30N 49°28' E 000°08'510.1
2017-Dec-07 20:00N 49°30' E 000°01'713.4
2017-Dec-07 19:30N 49°32' W 000°08'612.9
2017-Dec-07 19:00N 49°33' W 000°18'612.4
2017-Dec-07 18:30N 49°35' W 000°27'510.7
2017-Dec-07 18:01N 49°36' W 000°35'1 1.8
2017-Dec-07 17:30N 49°37' W 000°35'0 1.0
2017-Dec-07 17:00N 49°37' W 000°35'0 0.9
2017-Dec-07 16:30N 49°38' W 000°35'0 0.7
2017-Dec-07 16:00N 49°38' W 000°34'1 1.9
2017-Dec-07 15:30N 49°39' W 000°33'0 0.7
2017-Dec-07 15:00N 49°38' W 000°33'0 0.7
2017-Dec-07 14:30N 49°38' W 000°34'1 1.3
2017-Dec-07 14:00N 49°38' W 000°34'1 1.8
2017-Dec-07 13:30N 49°38' W 000°36'1 2.0
2017-Dec-07 13:00N 49°37' W 000°37'1 2.2
2017-Dec-07 12:30N 49°37' W 000°38'1 2.4
2017-Dec-07 11:57N 49°36' W 000°40'1 2.7
2017-Dec-07 11:30N 49°35' W 000°42'1 2.9
2017-Dec-07 11:00N 49°35' W 000°44'1 2.5
2017-Dec-07 10:30N 49°35' W 000°45'510.1
2017-Dec-07 10:00N 49°40' W 000°48'714.9
2017-Dec-07 09:30N 49°45' W 000°55'816.3
2017-Dec-07 09:00N 49°49' W 001°07'1418.7
2017-Dec-07 08:14N 49°54' W 001°28'5114.2
2017-Dec-07 04:37N 49°49' W 002°47'214.7
2017-Dec-07 04:31N 49°48' W 002°49'1014.6
2017-Dec-07 03:50N 49°44' W 003°03'514.7
2017-Dec-07 03:30N 49°41' W 003°09'714.3
2017-Dec-07 03:00N 49°38' W 003°19'4415.0
2017-Dec-07 00:03N 49°15' W 004°18'715.2
2017-Dec-06 23:35N 49°12' W 004°27'215.5
2017-Dec-06 23:28N 49°11' W 004°29'815.4
2017-Dec-06 22:55N 49°06' W 004°40'715.6
2017-Dec-06 22:30N 49°03' W 004°49'815.9
2017-Dec-06 22:00N 48°58' W 004°59'815.9
2017-Dec-06 21:30N 48°54' W 005°09'816.3
2017-Dec-06 21:00N 48°50' W 005°20'  

Dump ship's entire track history